Aviation Digital Data Service (ADDS)

Output produced by METARs form (0616 UTC 28 September 2022)
found at http://www.aviationweather.gov/metar/data/
 
VTCT 280600Z 05007KT 010V090 9999 FEW020 32/24 Q1006 NOSIG
VTCT 280500Z 03006KT 350V090 9999 FEW020 31/24 Q1007 NOSIG
VTCT 280400Z 03007KT 9999 FEW020 30/24 Q1008 NOSIG
VTCT 280300Z 05007KT 010V080 9999 FEW020 28/23 Q1009 NOSIG
VTCT 280200Z 01004KT 9999 FEW015 27/23 Q1009 NOSIG
VTCT 280100Z 02004KT 9999 FEW015 25/23 Q1008 NOSIG
VTCT 280000Z 28002KT CAVOK 22/22 Q1007 NOSIG
VTCT 272300Z 00000KT CAVOK 22/22 Q1007 NOSIG
VTCT 272200Z 00000KT CAVOK 23/23 Q1007 NOSIG
VTCT 272100Z 30002KT CAVOK 23/23 Q1007 NOSIG
VTCT 272000Z 34002KT CAVOK 23/23 Q1007 NOSIG
VTCT 271900Z 00000KT CAVOK 23/23 Q1008 NOSIG
VTCT 271800Z 25002KT CAVOK 23/23 Q1008 NOSIG
VTCT 271700Z 29003KT CAVOK 24/24 Q1009 NOSIG
VTCT 271600Z 26002KT CAVOK 24/24 Q1009 NOSIG
VTCT 271500Z 23003KT 9999 FEW040 25/25 Q1009 NOSIG
VTCT 271400Z 27003KT 9999 FEW040 25/25 Q1008 NOSIG
VTCT 271300Z 00000KT 9999 FEW040 26/26 Q1007 NOSIG
VTCT 271200Z 31004KT 9999 FEW040 27/24 Q1006 NOSIG
VTCT 271100Z VRB01KT 9999 FEW040 30/23 Q1006 NOSIG
VTCT 271000Z VRB02KT 9999 FEW040 31/22 Q1006 NOSIG
VTCT 270900Z 08005KT 9999 FEW035 31/23 Q1006 NOSIG
VTCT 270800Z 12003KT 360V160 9999 SCT035 31/23 Q1006 NOSIG
VTCT 270700Z VRB03KT 9999 SCT030 31/23 Q1007 NOSIG
VTCT 270600Z VRB03KT 9999 SCT030 31/23 Q1009 NOSIG
TAF VTCT 280500Z 2806/2912 03005KT 9999 FEW030 
     TEMPO 2810/2816 -TSRA FEW020CB BKN025 
     TEMPO 2820/2824 -TSRA FEW020CB BKN025 
     TEMPO 2906/2912 -TSRA FEW020CB BKN025